Time;durP1;ratioP1;P1;durP2;ratioP2;P2;SDS_P1;SDS_P2;PMS_P1;PMS_P2;Temp;Humidity;BMP_temperature;BMP_pressure;BME280_temperature;BME280_humidity;BME280_pressure;Samples;Min_cycle;Max_cycle;Signal;HPM_P1;HPM_P2
2022/07/08 00:01:44;;;;;;;26.55;4.28;;;;;;;14.42;100.00;98921.41;5058437;28;20126;-58
2022/07/08 00:04:09;;;;;;;34.20;4.68;;;;;;;14.29;100.00;98915.81;5059332;28;20032;-59
2022/07/08 00:06:34;;;;;;;27.27;4.30;;;;;;;13.95;100.00;98917.22;5059492;28;20033;-57
2022/07/08 00:09:00;;;;;;;26.88;4.15;;;;;;;14.38;100.00;98920.69;5059258;28;20089;-57
2022/07/08 00:11:25;;;;;;;37.22;4.68;;;;;;;14.23;100.00;98921.31;5058239;28;20086;-57
2022/07/08 00:13:51;;;;;;;24.98;4.07;;;;;;;14.18;100.00;98918.88;5059472;28;20036;-57
2022/07/08 00:16:16;;;;;;;29.27;4.57;;;;;;;14.24;100.00;98926.53;5059286;28;20396;-58
2022/07/08 00:18:41;;;;;;;28.83;4.57;;;;;;;14.36;100.00;98933.03;5059722;28;20032;-57
2022/07/08 00:21:07;;;;;;;31.80;4.68;;;;;;;14.40;100.00;98933.75;5058407;28;20945;-57
2022/07/08 00:23:33;;;;;;;32.55;4.88;;;;;;;14.06;100.00;98929.88;5058485;28;20093;-59
2022/07/08 00:25:58;;;;;;;29.42;4.70;;;;;;;14.03;100.00;98936.09;5059246;28;20036;-57
2022/07/08 00:28:24;;;;;;;30.58;4.07;;;;;;;14.55;100.00;98932.25;5059369;28;20052;-56
2022/07/08 00:30:49;;;;;;;27.98;4.30;;;;;;;14.29;100.00;98934.19;5058322;28;20561;-55
2022/07/08 00:33:15;;;;;;;38.67;5.18;;;;;;;14.37;100.00;98942.63;5059211;28;20028;-55
2022/07/08 00:35:40;;;;;;;35.95;5.30;;;;;;;14.25;100.00;98938.69;5058666;28;20067;-56
2022/07/08 00:38:06;;;;;;;29.88;4.53;;;;;;;14.22;100.00;98944.06;5059306;28;20367;-55
2022/07/08 00:40:31;;;;;;;30.73;4.68;;;;;;;14.05;100.00;98944.75;5056396;28;20041;-56
2022/07/08 00:42:56;;;;;;;35.40;5.45;;;;;;;14.05;100.00;98950.00;5058519;28;20036;-55
2022/07/08 00:45:22;;;;;;;33.15;4.93;;;;;;;14.30;100.00;98941.16;5058032;28;20039;-55
2022/07/08 00:47:47;;;;;;;33.30;4.72;;;;;;;13.75;100.00;98951.22;5058497;28;20509;-56
2022/07/08 00:50:13;;;;;;;39.08;5.68;;;;;;;13.77;100.00;98946.78;5057891;28;20530;-54
2022/07/08 00:52:39;;;;;;;32.08;4.95;;;;;;;13.62;100.00;98943.84;5059151;28;20024;-55
2022/07/08 00:55:06;;;;;;;43.15;5.85;;;;;;;13.66;100.00;98955.91;5055578;28;20036;-56
2022/07/08 00:57:32;;;;;;;31.70;4.90;;;;;;;13.75;100.00;98959.06;5056635;28;20024;-56
2022/07/08 00:59:58;;;;;;;45.22;6.05;;;;;;;13.62;100.00;98956.06;5057859;28;20967;-55
2022/07/08 01:02:23;;;;;;;39.35;5.93;;;;;;;13.05;100.00;98955.50;5058420;28;20044;-55
2022/07/08 01:04:50;;;;;;;28.45;4.55;;;;;;;12.85;100.00;98964.94;5058065;28;20117;-54
2022/07/08 01:07:15;;;;;;;30.60;4.80;;;;;;;13.13;100.00;98961.34;5058177;28;20032;-56
2022/07/08 01:09:41;;;;;;;28.35;4.75;;;;;;;13.14;100.00;98962.19;5059064;28;20020;-56
2022/07/08 01:12:07;;;;;;;36.08;5.15;;;;;;;13.20;100.00;98964.59;5057246;28;20071;-56
2022/07/08 01:14:32;;;;;;;32.15;4.82;;;;;;;13.30;100.00;98958.97;5057980;28;20028;-56
2022/07/08 01:16:58;;;;;;;40.67;5.60;;;;;;;13.19;100.00;98968.13;5058274;28;20040;-56
2022/07/08 01:19:23;;;;;;;30.95;4.53;;;;;;;13.19;100.00;98963.72;5058808;28;20067;-56
2022/07/08 01:21:50;;;;;;;33.30;5.28;;;;;;;12.80;100.00;98972.09;5056452;28;20047;-55
2022/07/08 01:24:16;;;;;;;41.08;5.95;;;;;;;12.53;100.00;98974.75;5058220;28;20086;-58
2022/07/08 01:26:41;;;;;;;33.20;4.82;;;;;;;12.34;100.00;98986.72;5058067;28;20113;-56
2022/07/08 01:29:07;;;;;;;43.88;6.10;;;;;;;12.46;100.00;98988.94;5057874;28;20028;-56
2022/07/08 01:31:32;;;;;;;34.08;5.18;;;;;;;12.58;100.00;98987.69;5056951;28;20041;-56
2022/07/08 01:33:58;;;;;;;26.48;4.43;;;;;;;12.59;100.00;98988.53;5058502;28;20016;-56
2022/07/08 01:36:23;;;;;;;30.55;4.90;;;;;;;12.53;100.00;98990.47;5057639;28;20071;-56
2022/07/08 01:38:48;;;;;;;31.27;4.53;;;;;;;13.07;100.00;98999.09;5057946;28;20037;-56
2022/07/08 01:41:14;;;;;;;32.78;4.50;;;;;;;14.07;100.00;98990.16;5057708;28;20040;-55
2022/07/08 01:43:39;;;;;;;33.50;5.18;;;;;;;13.05;100.00;98981.69;5057613;28;20048;-57
2022/07/08 01:46:04;;;;;;;33.88;5.13;;;;;;;13.04;100.00;98988.72;5057946;28;20112;-55
2022/07/08 01:48:30;;;;;;;32.20;5.20;;;;;;;12.96;100.00;98993.38;5057734;28;20024;-57
2022/07/08 01:50:55;;;;;;;26.30;4.30;;;;;;;13.24;100.00;98995.88;5057559;28;20151;-57
2022/07/08 01:53:21;;;;;;;38.75;5.65;;;;;;;12.64;100.00;98997.94;5057367;28;20032;-57
2022/07/08 01:55:46;;;;;;;34.28;4.80;;;;;;;12.69;100.00;99000.41;5057965;28;20069;-56
2022/07/08 01:58:12;;;;;;;32.78;4.80;;;;;;;12.69;100.00;98995.16;5057787;28;20109;-57
2022/07/08 02:00:37;;;;;;;33.50;4.97;;;;;;;12.92;100.00;98994.38;5056639;28;20029;-56
2022/07/08 02:03:03;;;;;;;32.35;5.03;;;;;;;12.59;100.00;98993.75;5058087;28;20038;-58
2022/07/08 02:05:29;;;;;;;31.45;5.05;;;;;;;12.35;100.00;98996.25;5045547;28;20029;-56
2022/07/08 02:07:54;;;;;;;36.70;5.22;;;;;;;12.36;100.00;98998.00;5058006;28;20032;-57
2022/07/08 02:10:20;;;;;;;32.67;5.68;;;;;;;12.44;100.00;98990.75;5056885;28;20059;-58
2022/07/08 02:12:45;;;;;;;38.28;5.70;;;;;;;12.75;100.00;98994.09;5057968;28;20652;-56
2022/07/08 02:15:10;;;;;;;36.10;5.22;;;;;;;12.49;100.00;98983.59;5057135;28;20056;-56
2022/07/08 02:17:41;;;;;;;26.05;4.47;;;;;;;12.06;100.00;98990.22;5058044;28;20107;-56
2022/07/08 02:20:09;;;;;;;52.25;7.30;;;;;;;11.64;100.00;98998.44;5057036;28;20139;-57
2022/07/08 02:22:35;;;;;;;30.77;4.97;;;;;;;11.73;100.00;99008.59;5057008;28;20573;-57
2022/07/08 02:25:00;;;;;;;35.38;5.63;;;;;;;12.00;100.00;99000.00;5056764;28;20043;-57
2022/07/08 02:27:26;;;;;;;33.70;5.15;;;;;;;11.80;100.00;99008.41;5057261;28;20047;-56
2022/07/08 02:29:51;;;;;;;31.58;4.97;;;;;;;11.94;100.00;99003.66;5057166;28;20478;-56
2022/07/08 02:32:17;;;;;;;30.90;4.80;;;;;;;11.81;100.00;98999.69;5056904;28;20044;-58
2022/07/08 02:34:43;;;;;;;29.60;4.95;;;;;;;11.94;100.00;99001.91;5061695;28;20509;-56
2022/07/08 02:37:09;;;;;;;28.83;4.93;;;;;;;11.94;100.00;98995.81;5061213;28;20040;-56
2022/07/08 02:39:34;;;;;;;26.58;4.40;;;;;;;11.57;100.00;99008.19;5061217;28;20114;-57
2022/07/08 02:42:00;;;;;;;33.55;5.30;;;;;;;11.52;100.00;99006.59;5060266;28;20119;-56
2022/07/08 02:44:25;;;;;;;40.22;5.20;;;;;;;11.45;100.00;99011.19;5061356;28;20074;-56
2022/07/08 02:46:50;;;;;;;33.92;5.00;;;;;;;11.09;100.00;99020.88;5060893;28;20317;-56
2022/07/08 02:49:16;;;;;;;35.50;5.43;;;;;;;11.07;100.00;99017.44;5061062;28;20026;-56
2022/07/08 02:51:41;;;;;;;33.88;5.30;;;;;;;11.07;100.00;99023.53;5060406;28;20800;-56
2022/07/08 02:54:07;;;;;;;44.20;6.05;;;;;;;11.16;100.00;99022.44;5060747;28;20324;-56
2022/07/08 02:56:34;;;;;;;35.95;5.15;;;;;;;11.07;100.00;99015.69;5061136;28;20662;-58
2022/07/08 02:59:00;;;;;;;30.85;5.22;;;;;;;11.11;100.00;99022.53;5059877;28;20039;-56
2022/07/08 03:01:26;;;;;;;29.20;4.85;;;;;;;11.12;100.00;99010.31;5059772;28;20494;-57
2022/07/08 03:03:51;;;;;;;30.02;4.72;;;;;;;10.68;100.00;99010.63;5061311;28;20028;-56
2022/07/08 03:06:17;;;;;;;36.55;5.53;;;;;;;10.94;100.00;99023.00;5061217;28;20041;-56
2022/07/08 03:08:42;;;;;;;30.00;4.82;;;;;;;11.16;100.00;99022.44;5061756;28;20063;-57
2022/07/08 03:11:08;;;;;;;34.50;5.07;;;;;;;11.09;100.00;99026.94;5060214;28;20036;-56
2022/07/08 03:13:36;;;;;;;39.03;5.22;;;;;;;10.95;100.00;99027.31;5061103;28;20024;-56
2022/07/08 03:16:03;;;;;;;35.88;5.65;;;;;;;11.07;100.00;99028.75;5060608;28;20109;-56
2022/07/08 03:18:28;;;;;;;34.17;5.32;;;;;;;11.18;100.00;99031.06;5060707;28;20033;-56
2022/07/08 03:20:54;;;;;;;35.88;5.18;;;;;;;11.75;100.00;99027.72;5060590;28;20577;-56
2022/07/08 03:23:19;;;;;;;35.75;5.70;;;;;;;11.61;100.00;99027.25;5060638;28;20402;-56
2022/07/08 03:25:44;;;;;;;38.78;5.47;;;;;;;11.35;100.00;99025.38;5060670;28;20490;-56
2022/07/08 03:28:10;;;;;;;28.05;5.05;;;;;;;11.41;100.00;99033.03;5061740;28;20024;-56
2022/07/08 03:30:35;;;;;;;35.22;5.18;;;;;;;11.40;100.00;99044.41;5059610;28;20064;-58
2022/07/08 03:33:01;;;;;;;31.25;4.72;;;;;;;11.56;100.00;99043.06;5061290;28;20621;-56
2022/07/08 03:35:26;;;;;;;36.45;5.13;;;;;;;11.62;100.00;99047.28;5060355;28;20042;-57
2022/07/08 03:37:52;;;;;;;34.38;5.07;;;;;;;11.69;100.00;99050.53;5061389;28;20059;-56
2022/07/08 03:43:01;;;;;;;35.58;4.80;;;;;;;11.79;100.00;99048.53;5060618;28;20106;-56
2022/07/08 03:45:27;;;;;;;36.15;5.10;;;;;;;11.87;100.00;99054.38;5059102;28;20437;-56
2022/07/08 03:47:52;;;;;;;33.78;5.22;;;;;;;11.98;100.00;99048.88;5061199;28;20105;-56
2022/07/08 03:50:18;;;;;;;38.65;5.97;;;;;;;12.14;100.00;99050.97;5059319;28;20085;-57
2022/07/08 03:52:45;;;;;;;26.85;4.72;;;;;;;12.13;100.00;99051.03;5060620;28;20028;-57
2022/07/08 03:55:10;;;;;;;29.90;4.80;;;;;;;11.83;100.00;99050.16;5059787;28;20103;-56
2022/07/08 03:57:35;;;;;;;23.98;4.60;;;;;;;11.86;100.00;99048.31;5060812;28;20815;-58
2022/07/08 04:00:01;;;;;;;45.63;6.55;;;;;;;12.30;100.00;99061.84;5059719;28;20029;-57
2022/07/08 04:02:27;;;;;;;30.90;5.32;;;;;;;12.18;100.00;99063.97;5059632;28;20135;-56
2022/07/08 04:04:52;;;;;;;34.88;5.38;;;;;;;12.25;100.00;99062.88;5060575;28;20090;-56
2022/07/08 04:07:17;;;;;;;28.75;5.15;;;;;;;12.61;100.00;99055.63;5059918;28;20126;-57
2022/07/08 04:09:43;;;;;;;36.47;5.38;;;;;;;12.40;100.00;99057.16;5060594;28;20426;-58
2022/07/08 04:12:09;;;;;;;28.50;5.15;;;;;;;12.03;100.00;99055.69;5059444;28;20056;-56
2022/07/08 04:14:34;;;;;;;27.15;4.35;;;;;;;12.63;100.00;99063.44;5059418;28;20172;-57
2022/07/08 04:17:00;;;;;;;43.08;6.05;;;;;;;12.22;100.00;99073.44;5057013;28;20040;-57
2022/07/08 04:19:25;;;;;;;25.95;4.72;;;;;;;12.57;100.00;99061.00;5059353;28;20036;-56
2022/07/08 04:21:51;;;;;;;29.77;5.07;;;;;;;12.34;100.00;99067.81;5059117;28;20037;-56
2022/07/08 04:24:16;;;;;;;31.65;5.00;;;;;;;12.32;100.00;99067.03;5059691;28;20153;-57
2022/07/08 04:26:41;;;;;;;28.02;4.57;;;;;;;12.38;100.00;99072.06;5059993;28;20033;-56
2022/07/08 04:29:07;;;;;;;37.05;5.45;;;;;;;12.51;100.00;99070.75;5059707;28;20031;-57
2022/07/08 04:31:32;;;;;;;31.88;5.05;;;;;;;12.75;100.00;99072.66;5059471;28;20131;-56
2022/07/08 04:33:58;;;;;;;25.23;4.53;;;;;;;12.57;100.00;99068.84;5059551;28;20434;-57
2022/07/08 04:36:23;;;;;;;32.47;4.93;;;;;;;13.22;100.00;99073.66;5058746;28;20046;-57
2022/07/08 04:38:49;;;;;;;34.13;5.20;;;;;;;13.08;100.00;99078.50;5059788;28;20031;-56
2022/07/08 04:41:15;;;;;;;33.13;5.22;;;;;;;12.54;100.00;99075.91;5056927;28;20044;-56
2022/07/08 04:43:40;;;;;;;29.75;5.03;;;;;;;12.67;100.00;99091.22;5059129;28;20038;-56
2022/07/08 04:46:06;;;;;;;32.28;5.10;;;;;;;12.80;100.00;99091.69;5058936;28;20173;-56
2022/07/08 04:48:31;;;;;;;31.95;5.18;;;;;;;13.05;100.00;99089.09;5059772;28;20097;-56
2022/07/08 04:50:57;;;;;;;31.05;5.20;;;;;;;13.37;100.00;99097.66;5057497;28;20036;-56
2022/07/08 04:53:22;;;;;;;37.22;5.95;;;;;;;13.29;100.00;99104.00;5045862;28;20079;-55
2022/07/08 04:55:48;;;;;;;25.60;4.60;;;;;;;13.13;100.00;99100.19;5059197;28;20933;-56
2022/07/08 04:58:14;;;;;;;30.05;4.90;;;;;;;13.28;100.00;99104.88;5059472;28;20024;-55
2022/07/08 05:00:39;;;;;;;30.08;5.20;;;;;;;13.47;100.00;99096.41;5058287;28;20036;-58
2022/07/08 05:03:05;;;;;;;30.33;5.18;;;;;;;13.71;100.00;99099.06;5059533;28;20017;-56
2022/07/08 05:05:30;;;;;;;33.05;5.45;;;;;;;13.29;100.00;99103.16;5058236;28;20561;-57
2022/07/08 05:08:00;;;;;;;25.25;4.65;;;;;;;13.56;100.00;99111.81;5047885;28;20028;-56
2022/07/08 05:10:26;;;;;;;29.73;5.45;;;;;;;13.50;100.00;99104.19;5057924;28;20031;-56
2022/07/08 05:12:53;;;;;;;34.13;5.18;;;;;;;13.54;100.00;99105.78;5058989;28;20035;-56
2022/07/08 05:15:18;;;;;;;29.15;4.85;;;;;;;13.89;100.00;99095.78;5057499;28;20162;-56
2022/07/08 05:17:44;;;;;;;34.85;4.97;;;;;;;13.93;100.00;99094.78;5058444;28;20110;-55
2022/07/08 05:20:10;;;;;;;35.67;5.50;;;;;;;13.82;100.00;99094.28;5057528;28;20111;-58
2022/07/08 05:22:36;;;;;;;34.63;4.88;;;;;;;14.28;100.00;99100.47;5058811;28;20039;-55
2022/07/08 05:25:07;;;;;;;27.83;4.65;;;;;;;14.19;100.00;99098.16;5058780;28;20025;-55
2022/07/08 05:27:32;;;;;;;27.80;4.57;;;;;;;14.54;100.00;99099.44;5058547;28;20067;-56
2022/07/08 05:29:58;;;;;;;35.80;5.50;;;;;;;13.98;100.00;99105.91;5058605;28;20433;-56
2022/07/08 05:32:23;;;;;;;32.17;4.90;;;;;;;13.96;100.00;99109.53;5058335;28;20029;-56
2022/07/08 05:34:49;;;;;;;39.25;5.70;;;;;;;14.54;100.00;99106.44;5058206;28;20119;-56
2022/07/08 05:37:14;;;;;;;31.33;4.57;;;;;;;14.69;100.00;99105.88;5058558;28;20097;-56
2022/07/08 05:39:41;;;;;;;28.88;4.38;;;;;;;14.39;100.00;99116.63;5059148;28;20035;-57
2022/07/08 05:42:10;;;;;;;26.35;4.30;;;;;;;14.88;100.00;99118.25;5057781;28;20028;-55
2022/07/08 05:44:36;;;;;;;27.35;3.95;;;;;;;15.07;100.00;99106.09;5058433;28;20028;-56
2022/07/08 05:47:03;;;;;;;29.13;4.45;;;;;;;14.83;100.00;99111.44;5058163;28;20054;-58
2022/07/08 05:49:28;;;;;;;25.40;4.25;;;;;;;15.10;100.00;99112.97;5057965;28;20063;-58
2022/07/08 05:51:54;;;;;;;25.13;4.25;;;;;;;15.28;100.00;99112.19;5057883;28;20143;-56
2022/07/08 05:54:20;;;;;;;28.63;4.50;;;;;;;15.35;100.00;99120.69;5058344;28;20032;-56
2022/07/08 05:56:45;;;;;;;31.95;4.78;;;;;;;15.55;100.00;99120.69;5057919;28;20037;-56
2022/07/08 05:59:10;;;;;;;28.80;4.85;;;;;;;16.06;100.00;99128.97;5058627;28;20060;-56
2022/07/08 06:01:36;;;;;;;24.55;4.30;;;;;;;15.47;100.00;99117.50;5056755;28;20115;-56
2022/07/08 06:04:01;;;;;;;26.17;4.15;;;;;;;15.82;100.00;99127.44;5058158;28;20665;-56
2022/07/08 06:06:26;;;;;;;24.35;4.18;;;;;;;16.08;100.00;99123.63;5057794;28;20032;-55
2022/07/08 06:08:52;;;;;;;25.92;4.22;;;;;;;15.77;100.00;99132.94;5061411;28;20028;-56
2022/07/08 06:11:17;;;;;;;27.00;4.35;;;;;;;15.84;100.00;99141.38;5060157;28;20041;-56
2022/07/08 06:13:43;;;;;;;28.35;4.13;;;;;;;15.84;100.00;99142.22;5062520;28;20544;-57
2022/07/08 06:16:08;;;;;;;29.90;4.25;;;;;;;15.91;100.00;99143.66;5060989;28;20037;-55
2022/07/08 06:18:36;;;;;;;28.27;4.78;;;;;;;15.52;100.00;99143.63;5062217;28;20467;-55
2022/07/08 06:21:02;;;;;;;27.88;4.03;;;;;;;16.55;100.00;99142.50;5061477;28;20048;-55
2022/07/08 06:23:27;;;;;;;37.20;5.32;;;;;;;15.72;100.00;99148.88;5062144;28;20379;-55
2022/07/08 06:25:52;;;;;;;25.30;4.13;;;;;;;16.12;100.00;99151.50;5061924;28;20047;-57
2022/07/08 06:28:18;;;;;;;25.20;3.92;;;;;;;15.88;100.00;99154.34;5062777;28;20532;-57
2022/07/08 06:30:43;;;;;;;25.10;3.83;;;;;;;16.14;100.00;99158.44;5061051;28;20041;-57
2022/07/08 06:33:09;;;;;;;32.08;4.35;;;;;;;16.35;100.00;99153.94;5062115;28;20116;-56
2022/07/08 06:35:34;;;;;;;37.28;5.43;;;;;;;16.12;100.00;99149.75;5061505;28;20037;-58
2022/07/08 06:38:01;;;;;;;27.45;4.30;;;;;;;16.07;100.00;99153.53;5061786;28;20035;-57
2022/07/08 06:40:27;;;;;;;28.58;4.40;;;;;;;16.41;100.00;99150.19;5060468;28;20131;-57
2022/07/08 06:42:52;;;;;;;23.17;3.85;;;;;;;16.15;100.00;99148.75;5061946;28;20231;-56
2022/07/08 06:45:17;;;;;;;29.85;4.28;;;;;;;16.42;100.00;99153.69;5061647;28;20115;-57
2022/07/08 06:47:43;;;;;;;25.48;4.07;;;;;;;16.33;100.00;99147.91;5061613;28;20052;-57
2022/07/08 06:50:09;;;;;;;36.80;5.28;;;;;;;16.46;100.00;99156.09;5059694;28;20046;-56
2022/07/08 06:52:35;;;;;;;27.42;4.00;;;;;;;16.46;100.00;99155.25;5060796;28;20051;-57
2022/07/08 06:55:01;;;;;;;27.52;4.30;;;;;;;16.70;100.00;99159.34;5060610;28;20039;-57
2022/07/08 06:57:27;;;;;;;30.25;4.55;;;;;;;16.47;100.00;99160.44;5060929;28;20614;-56
2022/07/08 06:59:52;;;;;;;31.10;4.35;;;;;;;16.32;100.00;99162.00;5060422;28;20028;-56
2022/07/08 07:02:18;;;;;;;28.70;4.50;;;;;;;16.48;100.00;99156.03;5059921;28;20037;-58
2022/07/08 07:04:43;;;;;;;22.25;3.83;;;;;;;16.54;100.00;99168.91;5060621;28;20625;-56
2022/07/08 07:07:09;;;;;;;25.08;4.07;;;;;;;16.33;100.00;99170.75;5060617;28;20036;-57
2022/07/08 07:09:35;;;;;;;26.88;4.15;;;;;;;16.93;100.00;99168.81;5061349;28;20031;-56
2022/07/08 07:12:01;;;;;;;21.35;3.40;;;;;;;17.17;100.00;99175.59;5059620;28;20309;-57
2022/07/08 07:14:27;;;;;;;24.52;4.25;;;;;;;17.00;100.00;99172.03;5060713;28;20529;-57
2022/07/08 07:16:52;;;;;;;26.17;4.22;;;;;;;17.52;100.00;99173.84;5061188;28;20040;-56
2022/07/08 07:19:18;;;;;;;27.67;4.03;;;;;;;17.37;100.00;99169.34;5059801;28;20021;-56
2022/07/08 07:21:43;;;;;;;24.02;3.70;;;;;;;17.25;100.00;99168.19;5060160;28;20064;-57
2022/07/08 07:24:08;;;;;;;26.55;3.92;;;;;;;17.13;100.00;99167.00;5060691;28;20094;-57
2022/07/08 07:26:34;;;;;;;25.02;3.70;;;;;;;18.29;100.00;99159.31;5060454;28;20055;-56
2022/07/08 07:28:59;;;;;;;26.13;3.85;;;;;;;18.86;100.00;99158.84;5061041;28;20021;-56
2022/07/08 07:31:25;;;;;;;26.00;3.78;;;;;;;19.07;100.00;99140.88;5059000;28;20127;-56
2022/07/08 07:33:50;;;;;;;26.70;3.72;;;;;;;19.51;100.00;99134.78;5059994;28;20099;-56
2022/07/08 07:36:15;;;;;;;22.75;3.70;;;;;;;19.72;100.00;99135.28;5061196;28;20040;-57
2022/07/08 07:38:41;;;;;;;20.23;3.60;;;;;;;18.57;100.00;99144.59;5061412;28;20044;-56
2022/07/08 07:41:06;;;;;;;24.77;3.88;;;;;;;19.52;100.00;99149.72;5059467;28;20198;-57
2022/07/08 07:43:32;;;;;;;27.58;4.30;;;;;;;20.12;100.00;99162.00;5060662;28;20131;-55
2022/07/08 07:45:57;;;;;;;26.27;4.07;;;;;;;20.42;100.00;99161.03;5060323;28;20604;-56
2022/07/08 07:48:22;;;;;;;26.98;3.72;;;;;;;20.27;100.00;99154.88;5060661;28;20035;-56
2022/07/08 07:50:48;;;;;;;20.98;3.63;;;;;;;19.44;100.00;99155.44;5059878;28;20036;-56
2022/07/08 07:53:13;;;;;;;20.23;3.45;;;;;;;21.34;100.00;99146.28;5060353;28;20028;-57
2022/07/08 07:55:38;;;;;;;20.88;3.35;;;;;;;22.38;100.00;99146.22;5059229;28;21002;-56
2022/07/08 07:58:04;;;;;;;20.17;3.67;;;;;;;22.16;97.10;99148.66;5060501;28;20028;-56
2022/07/08 08:00:29;;;;;;;22.15;3.95;;;;;;;21.41;100.00;99162.63;5059215;28;20356;-57
2022/07/08 08:02:55;;;;;;;20.35;3.20;;;;;;;20.40;100.00;99154.97;5060899;28;20067;-58
2022/07/08 08:05:20;;;;;;;19.17;3.47;;;;;;;20.42;100.00;99158.41;5059832;28;20055;-57
2022/07/08 08:07:46;;;;;;;22.33;3.47;;;;;;;20.40;100.00;99162.91;5059997;28;20021;-57
2022/07/08 08:10:13;;;;;;;33.50;4.93;;;;;;;20.50;100.00;99155.25;5059048;28;20024;-58
2022/07/08 08:12:38;;;;;;;23.75;3.95;;;;;;;22.60;100.00;99160.63;5059645;28;20064;-56
2022/07/08 08:15:04;;;;;;;17.67;3.15;;;;;;;21.89;100.00;99154.94;5059043;28;20609;-56
2022/07/08 08:17:37;;;;;;;23.02;4.13;;;;;;;21.79;100.00;99156.56;5059999;28;20082;-57
2022/07/08 08:20:04;;;;;;;28.08;4.63;;;;;;;21.84;94.11;99154.44;5059176;28;20386;-57
2022/07/08 08:22:30;;;;;;;21.48;3.72;;;;;;;21.47;100.00;99162.25;5058920;28;20040;-56
2022/07/08 08:24:55;;;;;;;20.02;3.60;;;;;;;21.86;99.00;99163.13;5058746;28;20028;-56
2022/07/08 08:27:21;;;;;;;25.27;3.90;;;;;;;21.85;90.49;99161.44;5058621;28;20043;-57
2022/07/08 08:29:46;;;;;;;26.10;4.10;;;;;;;21.58;98.85;99162.38;5059862;28;20032;-57
2022/07/08 08:32:11;;;;;;;19.13;3.60;;;;;;;20.55;94.03;99164.63;5058169;28;20044;-56
2022/07/08 08:34:37;;;;;;;19.92;3.47;;;;;;;22.46;86.88;99173.09;5058737;28;20028;-56
2022/07/08 08:37:02;;;;;;;23.63;3.85;;;;;;;21.77;94.92;99166.44;5057827;28;20037;-57
2022/07/08 08:39:28;;;;;;;18.85;3.58;;;;;;;22.80;90.76;99164.50;5059948;28;20115;-56
2022/07/08 08:41:54;;;;;;;20.52;3.70;;;;;;;21.18;85.54;99171.16;5058209;28;20651;-57
2022/07/08 08:44:19;;;;;;;21.15;3.40;;;;;;;21.02;86.81;99165.16;5058493;28;20111;-56
2022/07/08 08:46:45;;;;;;;19.92;3.38;;;;;;;21.59;94.55;99172.03;5059293;28;20036;-56
2022/07/08 08:49:10;;;;;;;20.90;3.38;;;;;;;22.41;91.72;99169.91;5059899;28;20024;-56
2022/07/08 08:51:39;;;;;;;23.15;3.78;;;;;;;22.56;86.75;99167.97;5058574;28;20036;-58
2022/07/08 08:54:06;;;;;;;19.27;3.72;;;;;;;24.20;72.73;99169.94;5059289;28;20032;-56
2022/07/08 08:56:32;;;;;;;18.05;3.45;;;;;;;24.76;61.28;99171.75;5058719;28;20040;-57
2022/07/08 08:58:59;;;;;;;16.20;3.30;;;;;;;23.36;65.14;99171.91;5058914;28;20082;-57
2022/07/08 09:01:24;;;;;;;19.48;3.65;;;;;;;22.86;63.69;99167.53;5058512;28;20320;-57
2022/07/08 09:03:50;;;;;;;18.10;3.40;;;;;;;22.80;67.22;99162.69;5059360;28;20024;-57
2022/07/08 09:06:15;;;;;;;21.35;3.80;;;;;;;25.56;57.97;99168.66;5058939;28;20126;-57
2022/07/08 09:08:40;;;;;;;11.25;2.65;;;;;;;24.66;59.38;99163.63;5058959;28;20027;-57
2022/07/08 09:11:06;;;;;;;18.40;3.63;;;;;;;23.67;69.46;99175.75;5056775;28;20105;-57
2022/07/08 09:13:32;;;;;;;20.08;3.88;;;;;;;24.55;66.30;99176.97;5058537;28;20506;-57
2022/07/08 09:15:59;;;;;;;15.50;3.40;;;;;;;23.71;70.43;99166.59;5058414;28;20115;-56
2022/07/08 09:18:27;;;;;;;14.75;3.05;;;;;;;22.23;69.88;99165.88;5058965;28;20035;-57
2022/07/08 09:20:54;;;;;;;12.73;2.80;;;;;;;24.15;68.58;99164.97;5058050;28;20060;-56
2022/07/08 09:23:20;;;;;;;20.67;3.80;;;;;;;23.82;63.40;99157.78;5058618;28;20036;-57
2022/07/08 09:25:57;;;;;;;15.85;3.13;;;;;;;23.36;67.12;99166.59;5058346;28;20040;-57
2022/07/08 09:28:33;;;;;;;19.83;3.67;;;;;;;22.28;69.42;99169.09;5058266;28;20473;-57
2022/07/08 09:31:03;;;;;;;19.23;3.20;;;;;;;22.64;68.94;99170.06;5057266;28;20044;-57
2022/07/08 09:33:29;;;;;;;24.02;4.30;;;;;;;22.88;71.71;99181.59;5056784;28;20572;-57
2022/07/08 09:35:56;;;;;;;19.13;3.50;;;;;;;22.81;67.35;99183.00;5058748;28;20620;-56
2022/07/08 09:38:23;;;;;;;17.70;3.35;;;;;;;22.50;66.38;99179.91;5058096;28;20548;-55
2022/07/08 09:40:58;;;;;;;18.38;3.40;;;;;;;22.61;66.46;99186.28;5058101;28;20072;-56
2022/07/08 09:43:26;;;;;;;19.55;3.55;;;;;;;22.83;66.13;99175.75;5057648;28;20024;-56
2022/07/08 09:45:52;;;;;;;19.70;3.78;;;;;;;22.06;73.81;99180.34;5058233;28;20044;-56
2022/07/08 09:48:18;;;;;;;21.17;3.67;;;;;;;21.84;78.86;99181.84;5059017;28;20024;-57
2022/07/08 09:50:46;;;;;;;21.20;3.67;;;;;;;21.46;74.03;99176.47;5058652;28;20032;-56
2022/07/08 09:53:15;;;;;;;16.75;3.35;;;;;;;21.64;74.27;99164.59;5058672;28;20032;-56
2022/07/08 09:55:52;;;;;;;22.08;3.88;;;;;;;21.37;81.50;99172.59;5058133;28;20087;-56
2022/07/08 09:58:25;;;;;;;16.08;3.10;;;;;;;22.19;82.23;99164.41;5058849;28;20016;-57
2022/07/08 10:00:53;;;;;;;21.17;3.67;;;;;;;22.04;76.02;99171.66;5057099;28;20524;-58
2022/07/08 10:03:20;;;;;;;21.80;3.83;;;;;;;22.01;76.42;99169.19;5058092;28;20032;-56
2022/07/08 10:05:46;;;;;;;21.50;3.90;;;;;;;21.86;70.65;99163.97;5057789;28;20927;-56
2022/07/08 10:08:13;;;;;;;18.23;3.38;;;;;;;22.49;69.68;99167.56;5058852;28;20082;-57
2022/07/08 10:10:40;;;;;;;18.02;3.35;;;;;;;24.96;63.09;99175.44;5057460;28;20032;-56
2022/07/08 10:13:05;;;;;;;15.82;3.17;;;;;;;23.16;58.48;99163.63;5058326;28;20104;-56
2022/07/08 10:15:33;;;;;;;15.02;3.22;;;;;;;24.79;52.97;99158.13;5058770;28;20093;-57
2022/07/08 10:18:20;;;;;;;16.83;3.30;;;;;;;26.30;53.23;99167.69;5058040;28;20589;-56
2022/07/08 10:21:07;;;;;;;16.67;3.50;;;;;;;26.76;52.57;99164.59;5056680;28;20040;-57
2022/07/08 10:23:38;;;;;;;16.55;3.40;;;;;;;25.55;54.79;99171.47;5058385;28;20028;-53
2022/07/08 10:26:06;;;;;;;13.93;3.15;;;;;;;25.94;53.97;99169.91;5057682;28;20735;-53
2022/07/08 10:28:36;;;;;;;13.18;2.90;;;;;;;24.58;56.82;99166.91;5057500;28;20112;-52
2022/07/08 10:31:01;;;;;;;16.50;3.38;;;;;;;22.85;63.51;99168.53;5057373;28;20412;-57
2022/07/08 10:33:30;;;;;;;21.50;3.85;;;;;;;23.59;60.13;99171.03;5058370;28;20557;-56
2022/07/08 10:36:06;;;;;;;16.85;3.35;;;;;;;23.98;53.34;99166.28;5058026;28;20043;-56
2022/07/08 10:38:39;;;;;;;15.45;2.75;;;;;;;25.28;47.62;99166.63;5058148;28;20119;-56
2022/07/08 10:41:31;;;;;;;15.82;3.35;;;;;;;25.31;48.54;99158.34;5056930;28;20043;-56
2022/07/08 10:44:02;;;;;;;15.25;3.08;;;;;;;24.91;53.56;99166.97;5055842;28;20032;-56
2022/07/08 10:46:28;;;;;;;16.95;3.40;;;;;;;24.96;50.10;99170.97;5057464;28;20757;-56
2022/07/08 10:48:59;;;;;;;19.15;3.85;;;;;;;22.99;53.40;99153.34;5056668;28;20028;-58
2022/07/08 10:51:24;;;;;;;20.13;3.70;;;;;;;25.86;47.24;99152.81;5056521;28;20734;-57
2022/07/08 10:54:03;;;;;;;14.80;3.30;;;;;;;26.84;49.52;99156.75;5058369;28;20611;-58
2022/07/08 10:56:50;;;;;;;16.02;3.17;;;;;;;24.88;47.86;99151.19;5061243;28;20282;-56
2022/07/08 10:59:28;;;;;;;17.25;3.50;;;;;;;25.88;47.85;99149.03;5061320;28;20028;-56
2022/07/08 11:02:12;;;;;;;15.70;3.30;;;;;;;26.91;46.98;99149.88;5060370;28;20051;-56
2022/07/08 11:04:37;;;;;;;18.42;3.38;;;;;;;27.40;42.34;99148.03;5061576;28;20029;-56
2022/07/08 11:07:22;;;;;;;14.18;3.28;;;;;;;26.14;47.95;99156.66;5061889;28;20067;-57
2022/07/08 11:10:13;;;;;;;14.93;3.13;;;;;;;25.44;49.24;99143.00;5062652;28;20025;-56
2022/07/08 11:12:40;;;;;;;13.63;2.78;;;;;;;25.04;51.05;99143.63;5060800;28;20123;-56
2022/07/08 11:15:10;;;;;;;17.00;3.47;;;;;;;24.26;53.05;99142.78;5059700;28;20063;-57
2022/07/08 11:17:37;;;;;;;18.45;3.67;;;;;;;24.33;55.74;99144.00;5061346;28;20035;-56
2022/07/08 11:20:06;;;;;;;19.73;3.90;;;;;;;24.21;56.15;99137.81;5060350;28;20023;-56